Time;durP1;ratioP1;P1;durP2;ratioP2;P2;SDS_P1;SDS_P2;PMS_P1;PMS_P2;Temp;Humidity;BMP_temperature;BMP_pressure;BME280_temperature;BME280_humidity;BME280_pressure;Samples;Min_cycle;Max_cycle;Signal;HPM_P1;HPM_P2
2021/11/03 00:00:47;;;;;;;;;33.50;28.25;;;;;14.77;53.26;97685.63;6128492;28;96815;-68
2021/11/03 00:03:52;;;;;;;;;28.00;26.00;;;;;14.73;53.06;97690.00;6125689;28;97915;-68
2021/11/03 00:06:55;;;;;;;;;30.20;28.20;;;;;14.71;53.26;97686.72;6134980;28;96736;-66
2021/11/03 00:10:01;;;;;;;;;32.00;29.00;;;;;14.74;53.14;97678.88;6146400;28;97431;-68
2021/11/03 00:13:05;;;;;;;;;27.50;27.50;;;;;14.79;52.83;97683.47;6137048;28;97400;-69
2021/11/03 00:16:08;;;;;;;;;28.40;26.40;;;;;14.80;52.82;97689.69;6138579;28;96785;-66
2021/11/03 00:19:12;;;;;;;;;27.00;25.60;;;;;14.76;52.88;97689.41;6136771;28;96680;-66
2021/11/03 00:22:16;;;;;;;;;32.50;28.00;;;;;14.74;52.76;97692.44;6135617;28;98434;-69
2021/11/03 00:25:20;;;;;;;;;32.00;29.50;;;;;14.76;52.77;97700.28;6134011;28;98293;-66
2021/11/03 00:28:24;;;;;;;;;32.40;30.00;;;;;14.71;52.91;97698.41;6136852;28;97551;-68
2021/11/03 00:31:27;;;;;;;;;31.00;27.40;;;;;14.76;52.92;97708.41;6125051;28;96538;-66
2021/11/03 00:34:31;;;;;;;;;29.00;26.00;;;;;14.72;53.00;97715.50;6113340;28;99476;-68
2021/11/03 00:37:34;;;;;;;;;26.00;22.40;;;;;14.71;52.96;97722.81;6135849;28;98367;-67
2021/11/03 00:40:39;;;;;;;;;29.60;25.60;;;;;14.72;52.81;97723.63;6137326;28;97555;-69
2021/11/03 00:43:43;;;;;;;;;28.60;26.00;;;;;14.71;52.75;97719.28;6134813;28;97513;-67
2021/11/03 00:46:46;;;;;;;;;26.75;23.00;;;;;14.69;52.81;97735.03;6135394;28;97268;-68
2021/11/03 00:49:50;;;;;;;;;26.00;25.00;;;;;14.69;52.68;97732.31;6133501;28;98050;-68
2021/11/03 00:52:53;;;;;;;;;29.75;26.00;;;;;14.63;52.71;97730.72;6114419;28;98314;-68
2021/11/03 01:26:31;;;;;;;;;26.00;20.60;;;;;14.52;52.73;97758.94;6138896;28;97016;-66
2021/11/03 01:29:41;;;;;;;;;24.00;22.00;;;;;14.54;52.57;97756.78;6154480;28;97296;-67
2021/11/03 01:32:45;;;;;;;;;25.00;22.00;;;;;14.55;52.49;97767.34;6140339;28;96979;-68
2021/11/03 01:35:49;;;;;;;;;24.00;22.00;;;;;14.54;52.33;97759.50;6155482;28;98087;-69
2021/11/03 01:38:53;;;;;;;;;25.00;23.00;;;;;14.54;52.17;97748.63;6138939;28;97482;-69
2021/11/03 01:41:58;;;;;;;;;26.40;23.00;;;;;14.53;52.18;97736.97;6110668;28;98651;-69
2021/11/03 01:45:05;;;;;;;;;29.00;25.00;;;;;14.48;52.04;97734.28;6121410;28;98521;-67
2021/11/03 01:48:10;;;;;;;;;26.60;23.60;;;;;14.41;52.06;97739.19;6127526;28;97843;-69
2021/11/03 01:51:19;;;;;;;;;24.60;22.80;;;;;14.36;51.85;97738.34;6137168;28;96909;-67
2021/11/03 01:54:29;;;;;;;;;26.60;25.00;;;;;14.28;52.08;97751.34;6132185;28;96827;-69
2021/11/03 01:57:40;;;;;;;;;24.00;22.00;;;;;14.19;52.38;97746.75;6135307;28;97429;-70
2021/11/03 02:00:51;;;;;;;;;25.50;22.50;;;;;14.09;52.25;97747.56;6138814;28;97459;-69
2021/11/03 02:03:56;;;;;;;;;27.40;24.60;;;;;14.15;52.36;97760.03;6128287;28;97432;-67
2021/11/03 02:07:03;;;;;;;;;27.40;23.40;;;;;14.12;52.26;97754.38;6131463;28;96800;-67
2021/11/03 02:10:07;;;;;;;;;23.40;20.00;;;;;14.00;52.33;97742.97;6137550;28;97176;-69
2021/11/03 02:13:13;;;;;;;;;25.00;21.00;;;;;14.03;52.15;97754.06;6138412;28;97496;-67
2021/11/03 02:16:22;;;;;;;;;23.25;21.00;;;;;13.95;52.36;97749.22;6136833;28;97966;-68
2021/11/03 02:19:30;;;;;;;;;22.60;20.00;;;;;13.85;52.63;97750.03;6137935;28;97176;-69
2021/11/03 02:22:40;;;;;;;;;22.60;20.00;;;;;13.86;52.59;97756.25;6141234;28;98865;-70
2021/11/03 02:25:49;;;;;;;;;23.00;21.00;;;;;13.74;52.66;97761.91;6129870;28;97349;-69
2021/11/03 02:28:52;;;;;;;;;22.00;19.00;;;;;13.63;52.66;97763.00;6150087;28;97366;-68
2021/11/03 02:32:11;;;;;;;;;19.80;18.80;;;;;13.55;52.70;97770.81;6138100;28;96562;-69
2021/11/03 02:35:15;;;;;;;;;21.00;17.00;;;;;13.50;52.54;97770.81;6120034;28;97783;-67
2021/11/03 02:38:27;;;;;;;;;15.00;13.20;;;;;13.46;52.33;97767.84;6124198;28;96661;-67
2021/11/03 03:29:22;;;;;;;;;9.40;9.40;;;;;13.33;51.26;97771.06;6137477;28;97047;-66
2021/11/03 03:32:26;;;;;;;;;9.00;9.00;;;;;13.32;51.32;97769.41;6131766;28;96934;-68
2021/11/03 03:35:30;;;;;;;;;8.67;8.00;;;;;13.33;51.10;97771.88;6136778;28;97609;-69
2021/11/03 03:38:34;;;;;;;;;8.50;8.00;;;;;13.31;51.19;97774.03;6133596;28;97696;-69
2021/11/03 03:41:38;;;;;;;;;8.00;8.00;;;;;13.26;51.01;97770.47;6137808;28;96682;-69
2021/11/03 03:44:44;;;;;;;;;7.40;7.40;;;;;13.35;51.03;97787.81;6117456;28;98061;-67
2021/11/03 03:47:47;;;;;;;;;9.00;9.00;;;;;13.37;50.91;97788.38;6130176;28;96832;-67
2021/11/03 03:50:53;;;;;;;;;9.00;8.75;;;;;13.40;50.65;97796.78;6125961;28;97616;-69
2021/11/03 03:53:58;;;;;;;;;8.00;7.00;;;;;13.39;50.52;97791.63;6139980;28;97427;-69
2021/11/03 03:57:04;;;;;;;;;9.00;8.00;;;;;13.39;50.56;97787.03;6136233;28;96818;-67
2021/11/03 04:00:14;;;;;;;;;8.00;8.00;;;;;13.41;50.71;97794.88;6134584;28;96589;-68
2021/11/03 04:03:18;;;;;;;;;7.00;7.00;;;;;13.33;50.47;97793.53;6139690;28;96954;-68
2021/11/03 04:06:24;;;;;;;;;9.40;8.00;;;;;13.40;50.58;97798.66;6138756;28;97258;-66
2021/11/03 04:09:28;;;;;;;;;7.20;7.00;;;;;13.42;50.51;97802.75;6135860;28;96966;-68
2021/11/03 04:12:31;;;;;;;;;9.00;8.00;;;;;13.41;50.57;97806.53;6135948;28;99111;-66
2021/11/03 04:15:36;;;;;;;;;7.50;7.00;;;;;13.42;50.60;97810.06;6120991;28;98352;-66
2021/11/03 04:18:40;;;;;;;;;7.00;6.60;;;;;13.41;50.60;97817.38;6131383;28;96512;-66
2021/11/03 04:21:44;;;;;;;;;8.00;8.00;;;;;13.42;50.55;97819.00;6134786;28;97765;-68
2021/11/03 04:24:58;;;;;;;;;7.00;7.00;;;;;13.37;50.53;97818.16;6124256;28;97596;-66
2021/11/03 04:28:02;;;;;;;;;7.60;7.00;;;;;13.40;50.48;97818.44;6134329;28;98578;-69
2021/11/03 04:31:07;;;;;;;;;7.00;7.00;;;;;13.40;50.62;97820.31;6134949;28;97672;-66
2021/11/03 05:28:00;;;;;;;;;6.00;6.00;;;;;13.27;49.70;97856.03;6121814;28;96620;-67
2021/11/03 05:31:04;;;;;;;;;8.00;7.00;;;;;13.23;49.53;97852.22;6127790;28;97077;-69
2021/11/03 05:34:07;;;;;;;;;6.00;5.25;;;;;13.23;49.58;97842.22;6138743;28;96720;-67
2021/11/03 05:37:14;;;;;;;;;5.20;5.00;;;;;13.25;49.50;97845.44;6137211;28;100014;-67
2021/11/03 05:40:20;;;;;;;;;6.00;6.00;;;;;13.31;49.46;97847.09;6141231;28;96634;-67
2021/11/03 05:43:25;;;;;;;;;5.25;5.00;;;;;13.34;49.19;97843.06;6136276;28;97515;-68
2021/11/03 05:46:33;;;;;;;;;5.00;5.00;;;;;13.39;49.12;97838.47;6123244;28;97642;-68
2021/11/03 05:49:36;;;;;;;;;6.33;6.00;;;;;13.57;48.67;97847.19;6138341;28;97295;-66
2021/11/03 05:52:40;;;;;;;;;6.00;5.00;;;;;13.77;48.31;97848.06;6130421;28;97584;-67
2021/11/03 05:55:43;;;;;;;;;6.00;5.40;;;;;14.13;47.39;97842.69;6137258;28;97599;-68
2021/11/03 05:58:49;;;;;;;;;5.00;5.00;;;;;14.63;45.94;97841.91;6136347;28;97341;-67
2021/11/03 06:01:52;;;;;;;;;5.00;4.25;;;;;15.16;44.37;97826.88;6133818;28;97710;-69
2021/11/03 06:04:56;;;;;;;;;6.60;6.40;;;;;16.60;42.09;97853.78;6136757;28;96888;-67
2021/11/03 06:08:01;;;;;;;;;5.00;5.00;;;;;18.02;38.89;97862.00;6132113;28;96677;-67
2021/11/03 06:11:07;;;;;;;;;6.00;5.00;;;;;19.57;36.19;97861.53;6140446;28;97001;-69
2021/11/03 06:14:14;;;;;;;;;4.00;4.00;;;;;21.05;33.43;97863.28;6133929;28;96719;-67
2021/11/03 06:17:17;;;;;;;;;5.00;4.00;;;;;22.40;31.84;97872.56;6118742;28;97650;-69
2021/11/03 06:20:21;;;;;;;;;5.00;5.00;;;;;23.48;29.43;97877.75;6120839;28;98873;-68
2021/11/03 06:23:24;;;;;;;;;4.00;4.00;;;;;24.45;28.60;97884.00;6124736;28;97288;-70
2021/11/03 06:26:28;;;;;;;;;4.00;3.00;;;;;25.37;26.76;97892.03;6129013;28;98304;-67
2021/11/03 06:29:32;;;;;;;;;4.00;3.00;;;;;26.20;25.92;97902.66;6120269;28;97538;-69
2021/11/03 06:32:36;;;;;;;;;3.00;3.00;;;;;26.92;24.21;97896.19;6147163;28;97078;-66
2021/11/03 06:35:42;;;;;;;;;3.60;3.60;;;;;27.72;23.95;97909.00;6136573;28;97082;-69
2021/11/03 06:38:47;;;;;;;;;3.00;3.00;;;;;28.36;23.22;97926.03;6133934;28;97147;-66
2021/11/03 06:41:51;;;;;;;;;4.00;4.00;;;;;29.03;22.60;97923.13;6135971;28;98679;-66
2021/11/03 06:44:56;;;;;;;;;3.00;3.00;;;;;29.55;21.85;97919.78;6139705;28;96996;-68
2021/11/03 06:48:02;;;;;;;;;4.00;3.75;;;;;30.09;21.25;97934.22;6137545;28;97431;-68
2021/11/03 06:51:05;;;;;;;;;5.60;5.00;;;;;30.61;21.02;97932.63;6137025;28;96577;-67
2021/11/03 06:54:09;;;;;;;;;4.00;4.00;;;;;31.11;19.90;97936.09;6123709;28;97835;-68
2021/11/03 06:57:13;;;;;;;;;5.00;4.00;;;;;31.58;19.77;97933.44;6125673;28;97740;-70
2021/11/03 07:00:22;;;;;;;;;5.00;5.00;;;;;32.07;19.17;97946.22;6136212;28;97485;-68
2021/11/03 07:03:30;;;;;;;;;4.00;4.00;;;;;32.46;18.19;97940.94;6139245;28;96720;-70
2021/11/03 07:06:35;;;;;;;;;3.75;3.50;;;;;32.85;17.81;97942.00;6137723;28;97439;-66
2021/11/03 07:09:38;;;;;;;;;4.50;4.25;;;;;33.33;17.77;97945.41;6118223;28;99488;-68
2021/11/03 07:12:42;;;;;;;;;5.80;4.80;;;;;33.64;17.31;97943.06;6137232;28;97146;-69
2021/11/03 07:15:47;;;;;;;;;4.00;4.00;;;;;33.90;17.60;97945.53;6128626;28;96822;-68
2021/11/03 07:18:51;;;;;;;;;3.00;3.00;;;;;34.01;16.74;97949.16;6134184;28;96656;-67
2021/11/03 07:21:54;;;;;;;;;3.00;3.00;;;;;34.50;16.43;97948.34;6131701;28;96985;-69
2021/11/03 07:24:57;;;;;;;;;4.00;4.00;;;;;34.90;16.27;97954.63;6124241;28;99258;-67
2021/11/03 07:28:01;;;;;;;;;5.00;4.00;;;;;35.10;16.13;97947.38;6131973;28;98497;-69
2021/11/03 07:31:07;;;;;;;;;4.00;4.00;;;;;35.35;15.83;97961.28;6139829;28;96873;-68
2021/11/03 07:34:11;;;;;;;;;3.00;3.00;;;;;35.52;15.83;97972.44;6133801;28;97462;-69
2021/11/03 07:37:15;;;;;;;;;3.00;2.50;;;;;35.47;14.73;97972.84;6127645;28;98173;-69
2021/11/03 07:40:22;;;;;;;;;5.00;5.00;;;;;35.51;15.61;97984.03;6128013;28;97603;-70
2021/11/03 07:43:31;;;;;;;;;3.00;3.00;;;;;35.52;15.61;97980.03;6127178;28;97030;-68
2021/11/03 07:46:37;;;;;;;;;4.60;4.00;;;;;35.70;15.58;97974.34;6134426;28;98243;-65
2021/11/03 07:49:40;;;;;;;;;4.60;4.00;;;;;35.59;15.54;97974.38;6131067;28;97913;-66
2021/11/03 07:52:43;;;;;;;;;3.40;3.00;;;;;35.75;15.17;97982.31;6134546;28;96682;-68
2021/11/03 07:55:51;;;;;;;;;4.00;4.00;;;;;36.13;15.51;97988.84;6132525;28;97202;-67
2021/11/03 07:58:55;;;;;;;;;3.00;3.00;;;;;35.98;14.52;97983.34;6126525;28;97493;-66
2021/11/03 08:02:00;;;;;;;;;4.00;4.00;;;;;36.27;15.06;97980.34;6129009;28;96891;-66
2021/11/03 08:05:04;;;;;;;;;3.50;3.50;;;;;36.16;14.70;97985.28;6135889;28;97223;-68
2021/11/03 08:08:12;;;;;;;;;5.00;4.80;;;;;36.36;14.79;97989.13;6139863;28;100025;-66
2021/11/03 08:11:16;;;;;;;;;3.00;3.00;;;;;36.70;14.49;97994.84;6131697;28;97188;-67
2021/11/03 08:14:22;;;;;;;;;5.00;5.00;;;;;36.76;14.21;97995.97;6135522;28;97636;-70
2021/11/03 08:17:27;;;;;;;;;3.00;3.00;;;;;36.64;14.17;97991.69;6136148;28;98017;-67
2021/11/03 08:20:30;;;;;;;;;3.00;3.00;;;;;36.69;14.75;97999.66;6126670;28;96968;-70
2021/11/03 08:23:34;;;;;;;;;2.00;2.00;;;;;36.21;14.55;98004.47;6135334;28;97425;-70
2021/11/03 08:26:37;;;;;;;;;2.80;2.80;;;;;36.10;14.36;97996.09;6145634;28;99528;-69
2021/11/03 08:29:41;;;;;;;;;2.00;2.00;;;;;36.23;14.59;98002.84;6144436;28;97503;-68
2021/11/03 08:32:51;;;;;;;;;2.00;2.00;;;;;35.92;14.02;98013.03;6135552;28;96715;-69
2021/11/03 08:35:56;;;;;;;;;2.00;2.00;;;;;35.60;14.50;98001.22;6134850;28;96868;-66
2021/11/03 08:39:19;;;;;;;;;2.00;2.00;;;;;35.21;14.24;97995.78;6141105;28;96604;-66
2021/11/03 08:42:28;;;;;;;;;2.00;2.00;;;;;34.80;14.54;98006.69;6112855;28;97732;-67
2021/11/03 08:45:32;;;;;;;;;2.00;2.00;;;;;34.82;14.55;97993.09;6128987;28;98093;-65
2021/11/03 08:48:36;;;;;;;;;2.00;2.00;;;;;34.81;14.39;97997.09;6146743;28;97449;-67
2021/11/03 08:51:40;;;;;;;;;2.00;2.00;;;;;35.05;14.62;98004.63;6131756;28;97480;-67
2021/11/03 08:54:45;;;;;;;;;1.50;1.50;;;;;35.32;14.48;97992.94;6137455;28;96745;-67
2021/11/03 08:57:59;;;;;;;;;2.80;2.00;;;;;35.60;14.26;97987.19;6132411;28;96815;-67
2021/11/03 09:01:03;;;;;;;;;2.00;2.00;;;;;35.88;13.95;97984.22;6134024;28;98407;-65
2021/11/03 09:04:09;;;;;;;;;2.00;2.00;;;;;36.15;13.89;98000.50;6131161;28;97760;-67
2021/11/03 09:07:13;;;;;;;;;1.20;1.20;;;;;36.34;13.80;97997.13;6135826;28;97329;-69
2021/11/03 09:10:20;;;;;;;;;2.00;2.00;;;;;36.40;13.25;98003.91;6137145;28;97176;-67
2021/11/03 09:13:25;;;;;;;;;1.40;1.00;;;;;35.82;13.14;97993.50;6139468;28;96786;-63
2021/11/03 09:16:29;;;;;;;;;2.00;2.00;;;;;36.08;14.07;97989.28;6139304;28;97149;-67
2021/11/03 09:19:34;;;;;;;;;2.00;2.00;;;;;36.34;13.66;97999.94;6131255;28;97128;-64
2021/11/03 09:22:39;;;;;;;;;2.00;2.00;;;;;36.64;14.11;97990.88;6146070;28;97318;-68
2021/11/03 09:25:42;;;;;;;;;2.00;2.00;;;;;37.08;13.49;97996.44;6140012;28;97393;-66
2021/11/03 09:28:46;;;;;;;;;1.60;1.20;;;;;36.46;13.15;98005.84;6136577;28;99649;-67
2021/11/03 09:31:49;;;;;;;;;2.00;2.00;;;;;36.35;13.19;98002.34;6139502;28;96777;-68
2021/11/03 09:34:54;;;;;;;;;1.40;1.40;;;;;36.54;13.34;97998.16;6136583;28;97817;-68
2021/11/03 09:37:59;;;;;;;;;2.00;2.00;;;;;36.43;13.48;97995.44;6123058;28;96738;-67
2021/11/03 09:41:08;;;;;;;;;2.00;2.00;;;;;36.17;13.61;97989.66;6139040;28;97528;-70
2021/11/03 09:44:18;;;;;;;;;1.25;1.25;;;;;36.05;13.87;97988.94;6138530;28;96669;-64
2021/11/03 09:47:25;;;;;;;;;2.00;2.00;;;;;36.17;14.34;97984.03;6136538;28;97366;-68
2021/11/03 09:50:37;;;;;;;;;2.00;2.00;;;;;35.86;14.22;97985.88;6130022;28;97790;-66
2021/11/03 09:53:45;;;;;;;;;2.00;2.00;;;;;35.81;13.98;97980.69;6139881;28;97937;-67
2021/11/03 09:56:56;;;;;;;;;2.00;2.00;;;;;35.65;13.68;97975.53;6143737;28;96825;-66
2021/11/03 10:00:14;;;;;;;;;2.00;2.00;;;;;35.30;14.60;97973.72;6141259;28;97552;-69
2021/11/03 10:03:28;;;;;;;;;2.80;1.00;;;;;35.22;14.51;97966.56;6146747;28;97272;-69
2021/11/03 10:06:45;;;;;;;;;2.00;2.00;;;;;35.01;14.70;97969.41;6140960;28;97110;-66
2021/11/03 10:09:48;;;;;;;;;2.00;2.00;;;;;35.30;14.43;97976.53;6133308;28;97371;-63
2021/11/03 10:12:52;;;;;;;;;2.00;1.20;;;;;35.50;14.26;97983.25;6139827;28;97551;-63
2021/11/03 10:15:59;;;;;;;;;2.00;2.00;;;;;35.94;14.04;97988.19;6134179;28;97161;-68
2021/11/03 10:19:21;;;;;;;;;2.00;2.00;;;;;35.96;14.01;97985.78;6130697;28;97523;-66
2021/11/03 10:22:36;;;;;;;;;1.00;1.00;;;;;35.77;14.31;97982.72;6136786;28;97614;-66
2021/11/03 10:25:40;;;;;;;;;1.25;1.25;;;;;35.81;13.91;97963.84;6137599;28;97121;-65
2021/11/03 10:28:47;;;;;;;;;1.20;1.20;;;;;35.87;14.50;97979.06;6146365;28;97528;-67
2021/11/03 10:31:56;;;;;;;;;2.50;2.50;;;;;36.01;14.37;97970.53;6135240;28;97507;-63
2021/11/03 10:35:14;;;;;;;;;1.00;1.00;;;;;36.07;14.47;97970.88;6119677;28;98683;-64
2021/11/03 10:38:22;;;;;;;;;2.00;2.00;;;;;35.55;14.35;97957.59;6127725;28;97492;-67
2021/11/03 10:41:29;;;;;;;;;2.00;2.00;;;;;35.82;13.66;97957.84;6129503;28;98845;-64
2021/11/03 10:44:34;;;;;;;;;3.40;2.00;;;;;35.78;13.96;97914.19;6126389;28;98407;-65
2021/11/03 10:47:38;;;;;;;;;2.00;2.00;;;;;35.85;13.76;97953.41;6130207;28;96737;-68
2021/11/03 10:51:00;;;;;;;;;1.00;1.00;;;;;35.74;13.85;97955.47;6135126;28;98503;-66
2021/11/03 10:54:13;;;;;;;;;2.00;1.00;;;;;34.53;15.06;97943.94;6136529;28;98711;-68
2021/11/03 10:57:22;;;;;;;;;1.00;1.00;;;;;34.60;14.53;97915.94;6136428;28;96826;-65
2021/11/03 11:00:29;;;;;;;;;2.00;1.00;;;;;35.17;14.83;97931.38;6132988;28;97465;-66
2021/11/03 11:03:37;;;;;;;;;1.00;1.00;;;;;35.53;14.77;97928.38;6135878;28;97402;-66
2021/11/03 11:06:46;;;;;;;;;2.00;1.00;;;;;35.56;14.17;97933.16;6125773;28;96713;-65
2021/11/03 11:09:58;;;;;;;;;2.00;1.00;;;;;35.05;14.67;97931.78;6129561;28;96705;-65
2021/11/03 11:13:04;;;;;;;;;3.00;2.00;;;;;34.59;15.19;97926.31;6149125;28;96751;-63
2021/11/03 11:16:23;;;;;;;;;1.00;1.00;;;;;33.84;15.38;97927.56;6130877;28;97266;-63
2021/11/03 11:19:42;;;;;;;;;2.00;2.00;;;;;33.53;15.64;97903.94;6129355;28;96739;-67
2021/11/03 11:22:56;;;;;;;;;1.00;1.00;;;;;33.54;15.67;97916.72;6131882;28;97830;-62
2021/11/03 11:26:11;;;;;;;;;2.00;2.00;;;;;33.33;15.73;97911.88;6136039;28;97583;-64
2021/11/03 11:29:25;;;;;;;;;1.00;1.00;;;;;33.34;15.79;97915.47;6129781;28;97154;-64
2021/11/03 11:32:34;;;;;;;;;2.00;1.50;;;;;33.13;16.57;97907.81;6128994;28;97002;-63
2021/11/03 11:35:47;;;;;;;;;1.75;1.75;;;;;32.02;17.03;97904.75;6125996;28;98007;-66
2021/11/03 11:39:11;;;;;;;;;1.00;1.00;;;;;31.19;17.10;97901.56;6138260;28;99670;-62
2021/11/03 11:42:20;;;;;;;;;1.00;1.00;;;;;31.06;17.47;97891.88;6123401;28;96999;-62
2021/11/03 11:45:26;;;;;;;;;1.00;1.00;;;;;31.30;17.43;97889.38;6127291;28;97978;-63
2021/11/03 11:48:39;;;;;;;;;1.00;1.00;;;;;31.35;17.49;97888.22;6117501;28;96601;-65
2021/11/03 11:51:46;;;;;;;;;1.60;1.60;;;;;31.54;17.32;97881.63;6118403;28;97308;-65
2021/11/03 11:55:19;;;;;;;;;2.00;2.00;;;;;31.13;17.55;97887.16;6123887;28;98018;-64
2021/11/03 11:58:27;;;;;;;;;2.00;2.00;;;;;30.58;17.88;97883.31;6123000;28;98614;-65
2021/11/03 12:01:38;;;;;;;;;1.00;1.00;;;;;30.15;18.34;97883.88;6122292;28;98532;-64
2021/11/03 12:04:41;;;;;;;;;1.20;1.00;;;;;29.38;18.93;97878.59;6117845;28;96777;-65
2021/11/03 12:08:11;;;;;;;;;1.00;1.00;;;;;28.90;19.64;97878.06;6114355;28;99480;-64
2021/11/03 12:11:18;;;;;;;;;2.00;2.00;;;;;28.57;19.58;97878.56;6137765;28;98022;-65
2021/11/03 12:14:32;;;;;;;;;2.00;2.00;;;;;27.96;19.95;97889.41;6136452;28;97517;-66
2021/11/03 12:17:40;;;;;;;;;2.00;1.00;;;;;27.39;20.54;97899.06;6120854;28;97823;-63
2021/11/03 12:20:46;;;;;;;;;1.00;1.00;;;;;26.76;21.48;97892.53;6117398;28;100533;-64
2021/11/03 12:23:54;;;;;;;;;3.00;1.00;;;;;26.44;21.87;97891.59;6120123;28;97547;-64
2021/11/03 12:27:36;;;;;;;;;2.00;2.00;;;;;26.40;21.91;97885.16;6131642;28;97027;-64
2021/11/03 12:30:42;;;;;;;;;2.00;2.00;;;;;26.51;21.41;97883.53;6130685;28;96609;-64
2021/11/03 12:34:18;;;;;;;;;1.75;1.75;;;;;26.73;21.69;97894.03;6135273;28;98558;-63
2021/11/03 12:37:30;;;;;;;;;3.00;2.25;;;;;26.86;21.56;97889.31;6126599;28;97494;-64
2021/11/03 12:40:40;;;;;;;;;1.00;1.00;;;;;27.14;21.01;97884.56;6135538;28;97504;-66
2021/11/03 12:43:50;;;;;;;;;2.00;1.00;;;;;27.35;21.55;97886.28;6133264;28;97481;-62
2021/11/03 12:46:55;;;;;;;;;1.00;1.00;;;;;27.35;20.44;97892.63;6130197;28;98084;-63
2021/11/03 12:50:02;;;;;;;;;0.80;0.40;;;;;26.71;21.42;97898.31;6131740;28;97429;-65
2021/11/03 12:53:11;;;;;;;;;1.00;1.00;;;;;26.02;21.88;97904.06;6135001;28;97097;-64
2021/11/03 12:56:20;;;;;;;;;0.40;0.40;;;;;25.06;22.99;97903.59;6129025;28;96659;-66
2021/11/03 12:59:27;;;;;;;;;0.75;0.00;;;;;24.42;24.09;97900.41;6122895;28;98201;-66
2021/11/03 13:02:36;;;;;;;;;2.00;2.00;;;;;23.97;24.62;97913.94;6125006;28;97382;-65
2021/11/03 13:05:47;;;;;;;;;2.00;1.00;;;;;23.40;25.30;97903.34;6141549;28;98605;-66
2021/11/03 13:08:50;;;;;;;;;0.75;0.75;;;;;22.87;26.35;97912.03;6153396;28;97041;-63
2021/11/03 13:11:53;;;;;;;;;1.00;1.00;;;;;22.66;26.40;97913.78;6123080;28;98545;-64
2021/11/03 13:15:00;;;;;;;;;1.00;1.00;;;;;22.35;26.99;97901.00;6124360;28;100413;-67
2021/11/03 13:18:12;;;;;;;;;1.00;1.00;;;;;22.40;26.74;97909.09;6138076;28;96718;-64
2021/11/03 13:21:29;;;;;;;;;1.00;1.00;;;;;21.79;27.07;97843.44;6142989;28;97535;-67
2021/11/03 13:24:38;;;;;;;;;1.00;1.00;;;;;22.08;27.19;97911.47;6136000;28;97298;-66
2021/11/03 13:27:42;;;;;;;;;1.40;1.40;;;;;21.79;28.35;97914.75;6131528;28;97121;-66
2021/11/03 13:30:46;;;;;;;;;2.00;2.00;;;;;21.31;30.12;97901.00;6127726;28;97834;-66
2021/11/03 13:34:06;;;;;;;;;2.00;2.00;;;;;21.18;30.52;97900.78;6136716;28;98117;-68
2021/11/03 13:37:19;;;;;;;;;2.00;2.00;;;;;20.86;30.55;97837.22;6137923;28;97498;-67
2021/11/03 13:40:27;;;;;;;;;2.33;2.00;;;;;21.69;30.19;97896.66;6125228;28;96778;-67
2021/11/03 13:43:31;;;;;;;;;2.00;1.00;;;;;21.43;30.51;97895.75;6129477;28;99550;-68
2021/11/03 13:46:36;;;;;;;;;2.00;2.00;;;;;21.54;30.32;97884.19;6136157;28;97543;-66
2021/11/03 13:49:44;;;;;;;;;2.00;2.00;;;;;21.58;29.70;97884.34;6119096;28;97428;-67
2021/11/03 13:52:57;;;;;;;;;2.00;2.00;;;;;21.68;29.32;97878.56;6140010;28;96666;-69
2021/11/03 13:56:17;;;;;;;;;2.00;2.00;;;;;21.85;29.07;97881.34;6134099;28;97868;-69
2021/11/03 13:59:27;;;;;;;;;2.00;2.00;;;;;21.72;29.34;97886.97;6128089;28;97572;-67
2021/11/03 14:02:35;;;;;;;;;2.00;2.00;;;;;21.26;29.83;97885.50;6132307;28;97129;-67
2021/11/03 14:05:45;;;;;;;;;2.00;2.00;;;;;21.29;29.67;97884.88;6123193;28;98391;-67
2021/11/03 14:08:50;;;;;;;;;3.00;2.00;;;;;21.21;30.11;97882.88;6130140;28;97498;-67
2021/11/03 14:11:58;;;;;;;;;2.75;2.00;;;;;21.20;30.22;97885.97;6137800;28;97452;-67
2021/11/03 14:15:02;;;;;;;;;3.00;2.40;;;;;21.33;29.93;97887.78;6126574;28;96626;-68
2021/11/03 14:18:07;;;;;;;;;4.00;3.00;;;;;20.88;30.20;97837.72;6133548;28;96939;-67
2021/11/03 14:21:11;;;;;;;;;2.40;2.00;;;;;21.24;30.85;97885.00;6125339;28;98904;-67
2021/11/03 14:24:16;;;;;;;;;2.40;2.00;;;;;21.09;31.01;97883.47;6128458;28;96781;-66
2021/11/03 14:27:20;;;;;;;;;5.00;4.75;;;;;20.94;31.04;97889.31;6122613;28;97478;-65
2021/11/03 14:30:26;;;;;;;;;3.00;3.00;;;;;20.61;32.28;97894.25;6116933;28;97431;-65
2021/11/03 14:33:33;;;;;;;;;4.00;3.75;;;;;20.17;33.08;97885.97;6144283;28;97472;-63
2021/11/03 14:36:38;;;;;;;;;4.00;3.40;;;;;19.92;33.71;97876.38;6138373;28;97394;-64
2021/11/03 14:39:47;;;;;;;;;4.50;4.00;;;;;19.71;34.29;97880.66;6134896;28;97494;-64
2021/11/03 14:42:51;;;;;;;;;4.00;3.00;;;;;19.24;34.87;97829.94;6119036;28;96857;-63
2021/11/03 14:45:54;;;;;;;;;4.00;4.00;;;;;19.51;34.89;97897.47;6109826;28;98459;-65
2021/11/03 14:48:59;;;;;;;;;5.00;5.00;;;;;19.31;35.39;97894.00;6133807;28;97655;-67
2021/11/03 14:52:07;;;;;;;;;7.40;6.00;;;;;18.98;35.82;97889.69;6136974;28;96957;-63
2021/11/03 14:55:24;;;;;;;;;5.00;5.00;;;;;18.81;36.53;97886.72;6129349;28;98300;-65
2021/11/03 14:58:27;;;;;;;;;5.00;4.00;;;;;18.78;36.66;97887.31;6132105;28;96740;-64
2021/11/03 15:01:34;;;;;;;;;6.00;6.00;;;;;18.73;36.62;97868.28;6134245;28;97540;-64
2021/11/03 15:04:38;;;;;;;;;4.20;4.00;;;;;18.66;36.88;97856.94;6133141;28;97324;-63
2021/11/03 15:07:42;;;;;;;;;6.00;6.00;;;;;18.65;36.80;97853.41;6134482;28;97766;-66
2021/11/03 15:10:47;;;;;;;;;7.00;6.80;;;;;18.57;37.33;97852.16;6131576;28;97433;-65
2021/11/03 15:13:51;;;;;;;;;6.20;6.00;;;;;18.59;37.19;97847.22;6114434;28;97142;-64
2021/11/03 15:16:58;;;;;;;;;6.00;5.00;;;;;18.58;36.99;97851.03;6123750;28;96939;-65
2021/11/03 15:20:05;;;;;;;;;6.00;6.00;;;;;18.60;37.00;97850.75;6118966;28;97929;-63
2021/11/03 15:23:16;;;;;;;;;7.40;6.00;;;;;18.51;37.25;97866.16;6124929;28;98337;-65
2021/11/03 15:26:20;;;;;;;;;7.00;7.00;;;;;18.40;37.46;97868.25;6140200;28;97533;-66
2021/11/03 15:29:26;;;;;;;;;7.00;6.00;;;;;18.39;37.63;97860.34;6120679;28;97537;-65
2021/11/03 15:32:35;;;;;;;;;7.20;7.00;;;;;18.28;37.74;97862.41;6121911;28;97352;-66
2021/11/03 15:35:39;;;;;;;;;7.00;6.80;;;;;18.35;38.00;97867.50;6122084;28;97474;-65
2021/11/03 15:38:51;;;;;;;;;6.75;6.00;;;;;18.34;38.03;97871.34;6138089;28;97604;-65
2021/11/03 15:41:57;;;;;;;;;7.00;6.00;;;;;18.32;37.86;97868.91;6125040;28;97287;-65
2021/11/03 15:45:02;;;;;;;;;6.00;6.00;;;;;18.28;38.59;97867.06;6125686;28;97240;-65
2021/11/03 15:48:12;;;;;;;;;8.00;8.00;;;;;18.29;38.36;97885.06;6136911;28;97519;-65
2021/11/03 15:51:15;;;;;;;;;7.00;7.00;;;;;18.25;38.59;97873.13;6137189;28;96764;-65
2021/11/03 15:54:21;;;;;;;;;7.00;6.00;;;;;18.24;38.76;97875.03;6135395;28;96849;-64
2021/11/03 15:57:25;;;;;;;;;8.20;6.20;;;;;18.19;38.87;97867.72;6136900;28;96982;-66
2021/11/03 16:00:31;;;;;;;;;8.50;7.00;;;;;18.19;38.72;97867.72;6131699;28;98215;-64
2021/11/03 16:03:46;;;;;;;;;7.00;6.60;;;;;18.25;38.42;97882.09;6136888;28;96763;-65
2021/11/03 16:07:05;;;;;;;;;9.60;8.60;;;;;18.31;38.68;97871.94;6132801;28;99449;-66
2021/11/03 16:10:13;;;;;;;;;9.20;9.00;;;;;18.27;38.65;97879.91;6142281;28;99636;-65
2021/11/03 16:13:17;;;;;;;;;10.00;9.00;;;;;18.22;39.14;97879.97;6137154;28;97508;-64
2021/11/03 16:16:21;;;;;;;;;10.00;10.00;;;;;18.26;38.81;97880.19;6130850;28;97595;-66
2021/11/03 16:19:26;;;;;;;;;11.50;10.50;;;;;18.20;38.97;97863.09;6136663;28;96594;-65
2021/11/03 16:22:33;;;;;;;;;12.00;11.00;;;;;18.15;39.18;97869.44;6134998;28;97434;-66
2021/11/03 16:25:40;;;;;;;;;13.00;12.00;;;;;18.14;39.04;97873.25;6132501;28;97289;-64
2021/11/03 16:28:44;;;;;;;;;14.60;12.40;;;;;18.14;39.22;97878.72;6131998;28;96795;-66
2021/11/03 16:31:51;;;;;;;;;14.00;12.20;;;;;18.14;39.32;97886.09;6130878;28;97681;-63
2021/11/03 16:34:54;;;;;;;;;14.75;14.00;;;;;18.13;39.37;97888.00;6132725;28;97499;-63
2021/11/03 16:37:58;;;;;;;;;17.00;14.00;;;;;18.15;39.28;97884.97;6132392;28;97498;-64
2021/11/03 16:41:39;;;;;;;;;14.50;12.00;;;;;18.13;39.36;97885.28;6134373;28;96750;-67
2021/11/03 16:44:44;;;;;;;;;14.00;12.00;;;;;18.07;39.58;97889.19;6129813;28;97075;-69
2021/11/03 16:47:52;;;;;;;;;14.00;12.00;;;;;17.89;39.36;97880.97;6128215;28;98608;-67